sensor_id;sensor_type;location;lat;lon;timestamp;P1;durP1;ratioP1;P2;durP2;ratioP2
66874;SDS011;53784;52.630;4.896;2023-09-19T00:00:19;9.60;;;1.80;;
66874;SDS011;53784;52.630;4.896;2023-09-19T00:02:52;6.90;;;1.30;;
66874;SDS011;53784;52.630;4.896;2023-09-19T00:05:18;7.07;;;1.42;;
66874;SDS011;53784;52.630;4.896;2023-09-19T00:07:44;6.93;;;1.55;;
66874;SDS011;53784;52.630;4.896;2023-09-19T00:10:09;6.85;;;1.58;;
66874;SDS011;53784;52.630;4.896;2023-09-19T00:12:35;7.90;;;1.73;;
66874;SDS011;53784;52.630;4.896;2023-09-19T00:15:00;8.93;;;1.60;;
66874;SDS011;53784;52.630;4.896;2023-09-19T00:17:26;6.38;;;1.50;;
66874;SDS011;53784;52.630;4.896;2023-09-19T00:19:52;9.02;;;1.40;;
66874;SDS011;53784;52.630;4.896;2023-09-19T00:22:17;7.85;;;1.60;;
66874;SDS011;53784;52.630;4.896;2023-09-19T00:24:43;7.35;;;1.58;;
66874;SDS011;53784;52.630;4.896;2023-09-19T00:27:09;8.23;;;1.50;;
66874;SDS011;53784;52.630;4.896;2023-09-19T00:29:34;7.93;;;1.67;;
66874;SDS011;53784;52.630;4.896;2023-09-19T00:32:00;9.88;;;1.60;;
66874;SDS011;53784;52.630;4.896;2023-09-19T00:34:25;8.02;;;1.30;;
66874;SDS011;53784;52.630;4.896;2023-09-19T00:36:51;11.80;;;1.50;;
66874;SDS011;53784;52.630;4.896;2023-09-19T00:39:18;9.50;;;1.55;;
66874;SDS011;53784;52.630;4.896;2023-09-19T00:41:45;9.18;;;1.48;;
66874;SDS011;53784;52.630;4.896;2023-09-19T00:44:10;8.85;;;1.70;;
66874;SDS011;53784;52.630;4.896;2023-09-19T00:46:36;6.63;;;1.27;;
66874;SDS011;53784;52.630;4.896;2023-09-19T00:49:02;11.55;;;1.77;;
66874;SDS011;53784;52.630;4.896;2023-09-19T00:51:27;7.90;;;1.42;;
66874;SDS011;53784;52.630;4.896;2023-09-19T00:53:52;10.13;;;1.50;;
66874;SDS011;53784;52.630;4.896;2023-09-19T00:56:19;6.28;;;1.42;;
66874;SDS011;53784;52.630;4.896;2023-09-19T00:58:45;9.63;;;1.40;;
66874;SDS011;53784;52.630;4.896;2023-09-19T01:01:11;7.25;;;1.50;;
66874;SDS011;53784;52.630;4.896;2023-09-19T01:03:37;7.13;;;1.40;;
66874;SDS011;53784;52.630;4.896;2023-09-19T01:06:02;7.18;;;1.30;;
66874;SDS011;53784;52.630;4.896;2023-09-19T01:08:28;8.50;;;1.30;;
66874;SDS011;53784;52.630;4.896;2023-09-19T01:11:03;8.18;;;1.30;;
66874;SDS011;53784;52.630;4.896;2023-09-19T01:16:36;7.30;;;1.23;;
66874;SDS011;53784;52.630;4.896;2023-09-19T01:19:46;8.70;;;1.48;;
66874;SDS011;53784;52.630;4.896;2023-09-19T01:30:53;9.23;;;1.60;;
66874;SDS011;53784;52.630;4.896;2023-09-19T01:33:24;11.10;;;1.92;;
66874;SDS011;53784;52.630;4.896;2023-09-19T01:35:49;11.15;;;1.70;;
66874;SDS011;53784;52.630;4.896;2023-09-19T01:38:15;8.48;;;1.50;;
66874;SDS011;53784;52.630;4.896;2023-09-19T01:40:41;8.88;;;1.90;;
66874;SDS011;53784;52.630;4.896;2023-09-19T01:43:12;10.23;;;1.63;;
66874;SDS011;53784;52.630;4.896;2023-09-19T01:45:56;10.60;;;1.70;;
66874;SDS011;53784;52.630;4.896;2023-09-19T01:51:42;8.07;;;1.45;;
66874;SDS011;53784;52.630;4.896;2023-09-19T01:54:11;11.30;;;1.50;;
66874;SDS011;53784;52.630;4.896;2023-09-19T01:56:50;6.93;;;1.38;;
66874;SDS011;53784;52.630;4.896;2023-09-19T01:59:21;6.57;;;1.20;;
66874;SDS011;53784;52.630;4.896;2023-09-19T02:01:49;8.82;;;1.50;;
66874;SDS011;53784;52.630;4.896;2023-09-19T02:04:17;10.20;;;1.40;;
66874;SDS011;53784;52.630;4.896;2023-09-19T02:06:42;6.10;;;1.40;;
66874;SDS011;53784;52.630;4.896;2023-09-19T02:09:07;7.63;;;1.30;;
66874;SDS011;53784;52.630;4.896;2023-09-19T02:11:34;6.93;;;1.38;;
66874;SDS011;53784;52.630;4.896;2023-09-19T02:13:59;6.82;;;1.23;;
66874;SDS011;53784;52.630;4.896;2023-09-19T02:16:25;9.35;;;1.58;;
66874;SDS011;53784;52.630;4.896;2023-09-19T02:18:50;6.90;;;1.55;;
66874;SDS011;53784;52.630;4.896;2023-09-19T02:21:16;6.95;;;1.33;;
66874;SDS011;53784;52.630;4.896;2023-09-19T02:23:42;10.25;;;1.75;;
66874;SDS011;53784;52.630;4.896;2023-09-19T02:26:07;7.25;;;1.30;;
66874;SDS011;53784;52.630;4.896;2023-09-19T02:28:33;8.40;;;1.38;;
66874;SDS011;53784;52.630;4.896;2023-09-19T02:30:59;7.32;;;1.30;;
66874;SDS011;53784;52.630;4.896;2023-09-19T02:33:24;11.65;;;1.50;;
66874;SDS011;53784;52.630;4.896;2023-09-19T02:35:49;8.40;;;1.60;;
66874;SDS011;53784;52.630;4.896;2023-09-19T02:38:15;8.18;;;1.50;;
66874;SDS011;53784;52.630;4.896;2023-09-19T02:40:43;10.13;;;1.60;;
66874;SDS011;53784;52.630;4.896;2023-09-19T02:43:08;9.73;;;1.38;;
66874;SDS011;53784;52.630;4.896;2023-09-19T02:45:34;9.10;;;1.30;;
66874;SDS011;53784;52.630;4.896;2023-09-19T02:47:59;6.22;;;1.60;;
66874;SDS011;53784;52.630;4.896;2023-09-19T02:50:24;8.32;;;1.65;;
66874;SDS011;53784;52.630;4.896;2023-09-19T02:52:50;10.35;;;1.88;;
66874;SDS011;53784;52.630;4.896;2023-09-19T02:55:16;11.13;;;1.85;;
66874;SDS011;53784;52.630;4.896;2023-09-19T02:57:53;11.00;;;1.80;;
66874;SDS011;53784;52.630;4.896;2023-09-19T03:00:19;8.52;;;1.70;;
66874;SDS011;53784;52.630;4.896;2023-09-19T03:02:46;11.10;;;1.60;;
66874;SDS011;53784;52.630;4.896;2023-09-19T03:05:11;9.23;;;1.70;;
66874;SDS011;53784;52.630;4.896;2023-09-19T03:07:37;9.52;;;1.60;;
66874;SDS011;53784;52.630;4.896;2023-09-19T03:10:03;7.65;;;1.80;;
66874;SDS011;53784;52.630;4.896;2023-09-19T03:12:30;9.68;;;2.05;;
66874;SDS011;53784;52.630;4.896;2023-09-19T03:14:56;12.27;;;1.90;;
66874;SDS011;53784;52.630;4.896;2023-09-19T03:17:22;8.82;;;1.80;;
66874;SDS011;53784;52.630;4.896;2023-09-19T03:19:47;8.75;;;1.70;;
66874;SDS011;53784;52.630;4.896;2023-09-19T03:22:13;8.57;;;1.85;;
66874;SDS011;53784;52.630;4.896;2023-09-19T03:24:39;13.70;;;1.75;;
66874;SDS011;53784;52.630;4.896;2023-09-19T03:27:04;12.40;;;1.70;;
66874;SDS011;53784;52.630;4.896;2023-09-19T03:29:29;7.47;;;1.75;;
66874;SDS011;53784;52.630;4.896;2023-09-19T03:31:55;11.25;;;1.98;;
66874;SDS011;53784;52.630;4.896;2023-09-19T03:34:20;9.38;;;1.73;;
66874;SDS011;53784;52.630;4.896;2023-09-19T03:36:45;8.43;;;1.75;;
66874;SDS011;53784;52.630;4.896;2023-09-19T03:39:11;12.63;;;2.05;;
66874;SDS011;53784;52.630;4.896;2023-09-19T03:41:36;12.68;;;2.00;;
66874;SDS011;53784;52.630;4.896;2023-09-19T03:44:02;8.45;;;1.70;;
66874;SDS011;53784;52.630;4.896;2023-09-19T03:46:27;9.30;;;1.67;;
66874;SDS011;53784;52.630;4.896;2023-09-19T03:48:53;10.63;;;1.83;;
66874;SDS011;53784;52.630;4.896;2023-09-19T03:51:19;10.13;;;1.70;;
66874;SDS011;53784;52.630;4.896;2023-09-19T03:53:45;8.73;;;1.40;;
66874;SDS011;53784;52.630;4.896;2023-09-19T03:56:10;7.47;;;1.52;;
66874;SDS011;53784;52.630;4.896;2023-09-19T03:58:35;8.95;;;1.98;;
66874;SDS011;53784;52.630;4.896;2023-09-19T04:01:04;10.18;;;1.50;;
66874;SDS011;53784;52.630;4.896;2023-09-19T04:03:31;12.90;;;1.80;;
66874;SDS011;53784;52.630;4.896;2023-09-19T04:06:10;9.77;;;1.77;;
66874;SDS011;53784;52.630;4.896;2023-09-19T04:08:36;9.95;;;1.50;;
66874;SDS011;53784;52.630;4.896;2023-09-19T04:11:02;9.95;;;1.77;;
66874;SDS011;53784;52.630;4.896;2023-09-19T04:13:27;7.40;;;1.38;;
66874;SDS011;53784;52.630;4.896;2023-09-19T04:15:53;8.43;;;1.70;;
66874;SDS011;53784;52.630;4.896;2023-09-19T04:18:18;9.40;;;1.48;;
66874;SDS011;53784;52.630;4.896;2023-09-19T04:20:51;9.38;;;1.65;;
66874;SDS011;53784;52.630;4.896;2023-09-19T04:23:17;9.27;;;1.75;;
66874;SDS011;53784;52.630;4.896;2023-09-19T04:25:44;6.53;;;1.38;;
66874;SDS011;53784;52.630;4.896;2023-09-19T04:28:10;9.32;;;1.30;;
66874;SDS011;53784;52.630;4.896;2023-09-19T04:30:36;9.15;;;1.50;;
66874;SDS011;53784;52.630;4.896;2023-09-19T04:33:01;7.47;;;1.65;;
66874;SDS011;53784;52.630;4.896;2023-09-19T04:35:27;8.40;;;1.58;;
66874;SDS011;53784;52.630;4.896;2023-09-19T04:37:54;11.52;;;1.50;;
66874;SDS011;53784;52.630;4.896;2023-09-19T04:40:19;8.95;;;1.60;;
66874;SDS011;53784;52.630;4.896;2023-09-19T04:42:45;8.40;;;1.45;;
66874;SDS011;53784;52.630;4.896;2023-09-19T04:45:11;7.53;;;1.60;;
66874;SDS011;53784;52.630;4.896;2023-09-19T04:47:37;9.48;;;1.52;;
66874;SDS011;53784;52.630;4.896;2023-09-19T04:50:05;7.20;;;1.33;;
66874;SDS011;53784;52.630;4.896;2023-09-19T04:52:36;9.00;;;1.50;;
66874;SDS011;53784;52.630;4.896;2023-09-19T04:55:02;9.63;;;1.60;;
66874;SDS011;53784;52.630;4.896;2023-09-19T04:57:28;11.23;;;1.50;;
66874;SDS011;53784;52.630;4.896;2023-09-19T04:59:53;8.63;;;1.50;;
66874;SDS011;53784;52.630;4.896;2023-09-19T05:02:19;5.65;;;1.50;;
66874;SDS011;53784;52.630;4.896;2023-09-19T05:04:44;9.52;;;2.08;;
66874;SDS011;53784;52.630;4.896;2023-09-19T05:07:09;8.73;;;1.40;;
66874;SDS011;53784;52.630;4.896;2023-09-19T05:09:36;8.52;;;1.60;;
66874;SDS011;53784;52.630;4.896;2023-09-19T05:12:02;8.40;;;1.80;;
66874;SDS011;53784;52.630;4.896;2023-09-19T05:14:27;8.35;;;1.50;;
66874;SDS011;53784;52.630;4.896;2023-09-19T05:16:53;9.77;;;1.60;;
66874;SDS011;53784;52.630;4.896;2023-09-19T05:19:18;7.60;;;1.45;;
66874;SDS011;53784;52.630;4.896;2023-09-19T05:21:44;7.35;;;1.60;;
66874;SDS011;53784;52.630;4.896;2023-09-19T05:24:09;9.45;;;1.92;;
66874;SDS011;53784;52.630;4.896;2023-09-19T05:26:36;10.32;;;1.60;;
66874;SDS011;53784;52.630;4.896;2023-09-19T05:29:01;6.53;;;1.52;;
66874;SDS011;53784;52.630;4.896;2023-09-19T05:31:28;9.13;;;1.67;;
66874;SDS011;53784;52.630;4.896;2023-09-19T05:33:53;7.93;;;1.50;;
66874;SDS011;53784;52.630;4.896;2023-09-19T05:36:20;8.95;;;1.40;;
66874;SDS011;53784;52.630;4.896;2023-09-19T05:38:45;9.38;;;1.40;;
66874;SDS011;53784;52.630;4.896;2023-09-19T05:41:13;7.50;;;1.42;;
66874;SDS011;53784;52.630;4.896;2023-09-19T05:43:39;8.95;;;1.73;;
66874;SDS011;53784;52.630;4.896;2023-09-19T05:46:05;8.10;;;1.25;;
66874;SDS011;53784;52.630;4.896;2023-09-19T05:48:33;7.32;;;1.50;;
66874;SDS011;53784;52.630;4.896;2023-09-19T05:50:58;6.30;;;1.48;;
66874;SDS011;53784;52.630;4.896;2023-09-19T05:53:23;6.97;;;1.42;;
66874;SDS011;53784;52.630;4.896;2023-09-19T05:55:49;10.32;;;1.60;;
66874;SDS011;53784;52.630;4.896;2023-09-19T05:58:14;7.65;;;1.50;;
66874;SDS011;53784;52.630;4.896;2023-09-19T06:00:42;8.13;;;1.63;;
66874;SDS011;53784;52.630;4.896;2023-09-19T06:03:09;8.07;;;1.63;;
66874;SDS011;53784;52.630;4.896;2023-09-19T06:05:35;9.23;;;1.40;;
66874;SDS011;53784;52.630;4.896;2023-09-19T06:08:00;7.95;;;1.50;;
66874;SDS011;53784;52.630;4.896;2023-09-19T06:10:25;12.80;;;1.83;;
66874;SDS011;53784;52.630;4.896;2023-09-19T06:12:54;14.10;;;1.80;;
66874;SDS011;53784;52.630;4.896;2023-09-19T06:15:20;10.13;;;1.60;;
66874;SDS011;53784;52.630;4.896;2023-09-19T06:17:48;9.55;;;1.70;;
66874;SDS011;53784;52.630;4.896;2023-09-19T06:20:15;10.32;;;1.95;;
66874;SDS011;53784;52.630;4.896;2023-09-19T06:22:41;9.63;;;1.50;;
66874;SDS011;53784;52.630;4.896;2023-09-19T06:25:07;9.95;;;1.98;;
66874;SDS011;53784;52.630;4.896;2023-09-19T06:27:32;8.65;;;1.67;;
66874;SDS011;53784;52.630;4.896;2023-09-19T06:29:58;7.07;;;1.48;;
66874;SDS011;53784;52.630;4.896;2023-09-19T06:32:27;9.73;;;1.65;;
66874;SDS011;53784;52.630;4.896;2023-09-19T06:34:52;7.32;;;1.45;;
66874;SDS011;53784;52.630;4.896;2023-09-19T06:37:19;11.95;;;2.30;;
66874;SDS011;53784;52.630;4.896;2023-09-19T06:39:45;9.25;;;1.90;;
66874;SDS011;53784;52.630;4.896;2023-09-19T06:42:12;10.75;;;1.63;;
66874;SDS011;53784;52.630;4.896;2023-09-19T06:44:38;7.80;;;1.88;;
66874;SDS011;53784;52.630;4.896;2023-09-19T06:47:03;7.95;;;1.60;;
66874;SDS011;53784;52.630;4.896;2023-09-19T06:49:29;11.50;;;1.85;;
66874;SDS011;53784;52.630;4.896;2023-09-19T06:51:55;8.43;;;1.80;;
66874;SDS011;53784;52.630;4.896;2023-09-19T06:54:22;12.93;;;1.83;;
66874;SDS011;53784;52.630;4.896;2023-09-19T06:56:47;10.48;;;1.77;;
66874;SDS011;53784;52.630;4.896;2023-09-19T06:59:13;8.75;;;1.80;;
66874;SDS011;53784;52.630;4.896;2023-09-19T07:01:39;10.40;;;1.83;;
66874;SDS011;53784;52.630;4.896;2023-09-19T07:04:05;10.80;;;1.75;;
66874;SDS011;53784;52.630;4.896;2023-09-19T07:06:30;7.95;;;1.63;;
66874;SDS011;53784;52.630;4.896;2023-09-19T07:08:55;7.70;;;1.70;;
66874;SDS011;53784;52.630;4.896;2023-09-19T07:11:20;8.93;;;2.05;;
66874;SDS011;53784;52.630;4.896;2023-09-19T07:13:48;10.52;;;1.90;;
66874;SDS011;53784;52.630;4.896;2023-09-19T07:16:13;10.00;;;1.73;;
66874;SDS011;53784;52.630;4.896;2023-09-19T07:18:52;11.05;;;2.00;;
66874;SDS011;53784;52.630;4.896;2023-09-19T07:21:17;6.72;;;1.75;;
66874;SDS011;53784;52.630;4.896;2023-09-19T07:23:42;10.50;;;1.70;;
66874;SDS011;53784;52.630;4.896;2023-09-19T07:26:08;10.98;;;1.90;;
66874;SDS011;53784;52.630;4.896;2023-09-19T07:28:33;8.75;;;1.67;;
66874;SDS011;53784;52.630;4.896;2023-09-19T07:31:01;10.38;;;1.90;;
66874;SDS011;53784;52.630;4.896;2023-09-19T07:33:28;10.88;;;1.92;;
66874;SDS011;53784;52.630;4.896;2023-09-19T07:35:53;7.90;;;2.00;;
66874;SDS011;53784;52.630;4.896;2023-09-19T07:38:18;8.70;;;2.00;;
66874;SDS011;53784;52.630;4.896;2023-09-19T07:40:44;10.18;;;1.80;;
66874;SDS011;53784;52.630;4.896;2023-09-19T07:43:09;9.18;;;1.80;;
66874;SDS011;53784;52.630;4.896;2023-09-19T07:45:34;7.63;;;1.95;;
66874;SDS011;53784;52.630;4.896;2023-09-19T07:48:01;8.65;;;2.00;;
66874;SDS011;53784;52.630;4.896;2023-09-19T07:50:29;8.52;;;1.75;;
66874;SDS011;53784;52.630;4.896;2023-09-19T07:52:55;8.02;;;1.70;;
66874;SDS011;53784;52.630;4.896;2023-09-19T07:55:21;9.95;;;1.88;;
66874;SDS011;53784;52.630;4.896;2023-09-19T07:57:49;10.95;;;2.00;;
66874;SDS011;53784;52.630;4.896;2023-09-19T08:00:15;10.88;;;2.00;;
66874;SDS011;53784;52.630;4.896;2023-09-19T08:02:41;11.30;;;2.03;;
66874;SDS011;53784;52.630;4.896;2023-09-19T08:05:07;8.30;;;2.10;;
66874;SDS011;53784;52.630;4.896;2023-09-19T08:07:40;9.38;;;1.98;;
66874;SDS011;53784;52.630;4.896;2023-09-19T08:10:07;9.70;;;2.42;;
66874;SDS011;53784;52.630;4.896;2023-09-19T08:12:36;12.48;;;2.40;;
66874;SDS011;53784;52.630;4.896;2023-09-19T08:15:02;9.45;;;2.17;;
66874;SDS011;53784;52.630;4.896;2023-09-19T08:17:28;9.82;;;2.10;;
66874;SDS011;53784;52.630;4.896;2023-09-19T08:19:54;10.40;;;2.15;;
66874;SDS011;53784;52.630;4.896;2023-09-19T08:22:19;10.02;;;2.25;;
66874;SDS011;53784;52.630;4.896;2023-09-19T08:24:45;8.00;;;2.00;;
66874;SDS011;53784;52.630;4.896;2023-09-19T08:27:11;8.95;;;2.47;;
66874;SDS011;53784;52.630;4.896;2023-09-19T08:29:37;9.70;;;2.30;;
66874;SDS011;53784;52.630;4.896;2023-09-19T08:32:03;9.38;;;2.30;;
66874;SDS011;53784;52.630;4.896;2023-09-19T08:34:28;7.97;;;1.95;;
66874;SDS011;53784;52.630;4.896;2023-09-19T08:36:57;9.05;;;2.30;;
66874;SDS011;53784;52.630;4.896;2023-09-19T08:39:23;8.80;;;2.05;;
66874;SDS011;53784;52.630;4.896;2023-09-19T08:41:49;10.85;;;2.33;;
66874;SDS011;53784;52.630;4.896;2023-09-19T08:44:15;9.48;;;2.60;;
66874;SDS011;53784;52.630;4.896;2023-09-19T08:46:41;10.32;;;2.53;;
66874;SDS011;53784;52.630;4.896;2023-09-19T08:49:20;8.60;;;2.55;;
66874;SDS011;53784;52.630;4.896;2023-09-19T08:51:53;10.48;;;2.65;;
66874;SDS011;53784;52.630;4.896;2023-09-19T08:54:43;11.15;;;2.50;;
66874;SDS011;53784;52.630;4.896;2023-09-19T08:57:10;9.05;;;2.10;;
66874;SDS011;53784;52.630;4.896;2023-09-19T08:59:37;9.15;;;2.03;;
66874;SDS011;53784;52.630;4.896;2023-09-19T09:02:04;9.65;;;2.20;;
66874;SDS011;53784;52.630;4.896;2023-09-19T09:04:36;11.23;;;2.10;;
66874;SDS011;53784;52.630;4.896;2023-09-19T09:07:04;9.38;;;2.28;;
66874;SDS011;53784;52.630;4.896;2023-09-19T09:09:30;12.98;;;2.30;;
66874;SDS011;53784;52.630;4.896;2023-09-19T09:11:55;10.93;;;2.30;;
66874;SDS011;53784;52.630;4.896;2023-09-19T09:14:21;10.23;;;2.03;;
66874;SDS011;53784;52.630;4.896;2023-09-19T09:16:47;7.15;;;1.80;;
66874;SDS011;53784;52.630;4.896;2023-09-19T09:19:13;8.80;;;2.00;;
66874;SDS011;53784;52.630;4.896;2023-09-19T09:21:39;10.55;;;2.10;;
66874;SDS011;53784;52.630;4.896;2023-09-19T09:26:55;9.98;;;1.88;;
66874;SDS011;53784;52.630;4.896;2023-09-19T09:29:39;10.35;;;2.10;;
66874;SDS011;53784;52.630;4.896;2023-09-19T09:32:20;10.45;;;1.70;;
66874;SDS011;53784;52.630;4.896;2023-09-19T09:34:48;11.85;;;2.28;;
66874;SDS011;53784;52.630;4.896;2023-09-19T09:37:18;12.05;;;2.28;;
66874;SDS011;53784;52.630;4.896;2023-09-19T09:39:51;11.13;;;2.40;;
66874;SDS011;53784;52.630;4.896;2023-09-19T09:42:34;8.48;;;2.25;;
66874;SDS011;53784;52.630;4.896;2023-09-19T09:47:53;11.95;;;2.30;;
66874;SDS011;53784;52.630;4.896;2023-09-19T09:50:29;11.10;;;2.35;;
66874;SDS011;53784;52.630;4.896;2023-09-19T09:53:05;10.02;;;2.20;;
66874;SDS011;53784;52.630;4.896;2023-09-19T09:56:06;13.13;;;2.72;;
66874;SDS011;53784;52.630;4.896;2023-09-19T09:58:33;12.85;;;2.58;;
66874;SDS011;53784;52.630;4.896;2023-09-19T10:01:02;12.45;;;2.50;;
66874;SDS011;53784;52.630;4.896;2023-09-19T10:03:36;10.60;;;2.45;;
66874;SDS011;53784;52.630;4.896;2023-09-19T10:06:09;14.95;;;2.47;;
66874;SDS011;53784;52.630;4.896;2023-09-19T10:09:01;9.43;;;2.55;;
66874;SDS011;53784;52.630;4.896;2023-09-19T10:11:44;9.55;;;2.33;;
66874;SDS011;53784;52.630;4.896;2023-09-19T10:14:17;7.95;;;2.17;;
66874;SDS011;53784;52.630;4.896;2023-09-19T10:16:45;13.02;;;2.35;;
66874;SDS011;53784;52.630;4.896;2023-09-19T10:19:15;12.95;;;2.38;;
66874;SDS011;53784;52.630;4.896;2023-09-19T10:21:41;12.20;;;2.53;;
66874;SDS011;53784;52.630;4.896;2023-09-19T10:24:08;9.00;;;2.20;;
66874;SDS011;53784;52.630;4.896;2023-09-19T10:26:34;11.00;;;2.60;;
66874;SDS011;53784;52.630;4.896;2023-09-19T10:29:01;9.90;;;2.08;;
66874;SDS011;53784;52.630;4.896;2023-09-19T10:31:28;12.25;;;2.78;;
66874;SDS011;53784;52.630;4.896;2023-09-19T10:33:55;10.43;;;2.42;;
66874;SDS011;53784;52.630;4.896;2023-09-19T10:36:21;10.93;;;2.28;;
66874;SDS011;53784;52.630;4.896;2023-09-19T10:38:50;11.68;;;2.53;;
66874;SDS011;53784;52.630;4.896;2023-09-19T10:41:18;13.05;;;2.88;;
66874;SDS011;53784;52.630;4.896;2023-09-19T10:43:45;12.45;;;2.45;;
66874;SDS011;53784;52.630;4.896;2023-09-19T10:46:11;12.10;;;2.30;;
66874;SDS011;53784;52.630;4.896;2023-09-19T10:48:38;11.75;;;2.40;;
66874;SDS011;53784;52.630;4.896;2023-09-19T10:51:11;9.35;;;2.38;;
66874;SDS011;53784;52.630;4.896;2023-09-19T10:53:51;12.07;;;2.55;;
66874;SDS011;53784;52.630;4.896;2023-09-19T10:56:25;10.88;;;2.22;;
66874;SDS011;53784;52.630;4.896;2023-09-19T10:59:05;10.48;;;2.35;;
66874;SDS011;53784;52.630;4.896;2023-09-19T11:01:56;8.10;;;2.33;;
66874;SDS011;53784;52.630;4.896;2023-09-19T11:04:29;10.20;;;1.80;;
66874;SDS011;53784;52.630;4.896;2023-09-19T11:06:59;10.88;;;1.88;;
66874;SDS011;53784;52.630;4.896;2023-09-19T11:09:44;10.52;;;2.00;;
66874;SDS011;53784;52.630;4.896;2023-09-19T11:14:54;9.70;;;1.90;;
66874;SDS011;53784;52.630;4.896;2023-09-19T11:30:30;10.13;;;1.80;;
66874;SDS011;53784;52.630;4.896;2023-09-19T11:46:25;9.02;;;1.98;;
66874;SDS011;53784;52.630;4.896;2023-09-19T11:48:51;9.48;;;1.88;;
66874;SDS011;53784;52.630;4.896;2023-09-19T11:51:21;7.80;;;1.92;;
66874;SDS011;53784;52.630;4.896;2023-09-19T11:53:52;7.93;;;1.70;;
66874;SDS011;53784;52.630;4.896;2023-09-19T11:56:19;6.97;;;2.03;;
66874;SDS011;53784;52.630;4.896;2023-09-19T11:58:49;9.52;;;2.22;;
66874;SDS011;53784;52.630;4.896;2023-09-19T12:01:22;9.45;;;2.00;;
66874;SDS011;53784;52.630;4.896;2023-09-19T12:03:53;8.32;;;1.67;;
66874;SDS011;53784;52.630;4.896;2023-09-19T12:06:19;10.90;;;2.03;;
66874;SDS011;53784;52.630;4.896;2023-09-19T12:08:46;9.02;;;2.00;;
66874;SDS011;53784;52.630;4.896;2023-09-19T12:11:14;6.78;;;1.73;;
66874;SDS011;53784;52.630;4.896;2023-09-19T12:13:43;6.85;;;1.80;;
66874;SDS011;53784;52.630;4.896;2023-09-19T12:16:13;11.57;;;1.92;;
66874;SDS011;53784;52.630;4.896;2023-09-19T12:18:45;9.15;;;2.05;;
66874;SDS011;53784;52.630;4.896;2023-09-19T12:21:31;6.40;;;1.60;;
66874;SDS011;53784;52.630;4.896;2023-09-19T12:26:41;7.22;;;1.77;;
66874;SDS011;53784;52.630;4.896;2023-09-19T12:29:15;6.97;;;1.73;;
66874;SDS011;53784;52.630;4.896;2023-09-19T12:31:54;8.70;;;1.95;;
66874;SDS011;53784;52.630;4.896;2023-09-19T12:34:29;8.57;;;1.80;;
66874;SDS011;53784;52.630;4.896;2023-09-19T12:37:09;9.43;;;1.77;;
66874;SDS011;53784;52.630;4.896;2023-09-19T12:39:45;10.00;;;2.05;;
66874;SDS011;53784;52.630;4.896;2023-09-19T12:42:14;9.98;;;2.00;;
66874;SDS011;53784;52.630;4.896;2023-09-19T12:44:41;10.80;;;1.88;;
66874;SDS011;53784;52.630;4.896;2023-09-19T12:47:08;10.10;;;2.13;;
66874;SDS011;53784;52.630;4.896;2023-09-19T12:52:23;11.98;;;2.67;;
66874;SDS011;53784;52.630;4.896;2023-09-19T12:54:51;10.52;;;1.98;;
66874;SDS011;53784;52.630;4.896;2023-09-19T12:57:25;9.15;;;2.10;;
66874;SDS011;53784;52.630;4.896;2023-09-19T12:59:52;12.00;;;2.60;;
66874;SDS011;53784;52.630;4.896;2023-09-19T13:02:17;11.75;;;2.40;;
66874;SDS011;53784;52.630;4.896;2023-09-19T13:04:52;11.75;;;2.63;;
66874;SDS011;53784;52.630;4.896;2023-09-19T13:10:10;11.30;;;2.50;;
66874;SDS011;53784;52.630;4.896;2023-09-19T13:12:37;13.68;;;2.30;;
66874;SDS011;53784;52.630;4.896;2023-09-19T13:15:10;11.35;;;2.45;;
66874;SDS011;53784;52.630;4.896;2023-09-19T13:17:45;11.20;;;2.30;;
66874;SDS011;53784;52.630;4.896;2023-09-19T13:20:23;13.43;;;2.55;;
66874;SDS011;53784;52.630;4.896;2023-09-19T13:22:57;10.68;;;2.35;;
66874;SDS011;53784;52.630;4.896;2023-09-19T13:25:31;11.25;;;2.33;;
66874;SDS011;53784;52.630;4.896;2023-09-19T13:27:58;11.98;;;2.67;;
66874;SDS011;53784;52.630;4.896;2023-09-19T13:30:25;15.70;;;2.85;;
66874;SDS011;53784;52.630;4.896;2023-09-19T13:32:52;11.55;;;2.47;;
66874;SDS011;53784;52.630;4.896;2023-09-19T13:35:18;14.93;;;2.53;;
66874;SDS011;53784;52.630;4.896;2023-09-19T13:37:45;12.88;;;2.50;;
66874;SDS011;53784;52.630;4.896;2023-09-19T13:40:14;14.27;;;2.40;;
66874;SDS011;53784;52.630;4.896;2023-09-19T13:42:40;18.90;;;3.25;;
66874;SDS011;53784;52.630;4.896;2023-09-19T13:45:06;12.10;;;2.47;;
66874;SDS011;53784;52.630;4.896;2023-09-19T13:47:35;11.73;;;2.35;;
66874;SDS011;53784;52.630;4.896;2023-09-19T13:50:03;12.43;;;2.50;;
66874;SDS011;53784;52.630;4.896;2023-09-19T13:52:29;13.65;;;2.45;;
66874;SDS011;53784;52.630;4.896;2023-09-19T13:54:55;7.47;;;2.15;;
66874;SDS011;53784;52.630;4.896;2023-09-19T13:57:24;12.55;;;2.60;;
66874;SDS011;53784;52.630;4.896;2023-09-19T13:59:51;12.55;;;2.70;;
66874;SDS011;53784;52.630;4.896;2023-09-19T14:02:16;14.77;;;2.70;;
66874;SDS011;53784;52.630;4.896;2023-09-19T14:04:43;19.23;;;3.33;;
66874;SDS011;53784;52.630;4.896;2023-09-19T14:07:08;17.20;;;3.08;;
66874;SDS011;53784;52.630;4.896;2023-09-19T14:09:35;13.85;;;2.88;;
66874;SDS011;53784;52.630;4.896;2023-09-19T14:12:00;14.15;;;2.90;;
66874;SDS011;53784;52.630;4.896;2023-09-19T14:14:26;14.50;;;2.97;;
66874;SDS011;53784;52.630;4.896;2023-09-19T14:16:51;14.60;;;2.67;;
66874;SDS011;53784;52.630;4.896;2023-09-19T14:19:20;15.77;;;2.50;;
66874;SDS011;53784;52.630;4.896;2023-09-19T14:21:45;21.65;;;3.90;;
66874;SDS011;53784;52.630;4.896;2023-09-19T14:24:10;20.75;;;3.08;;
66874;SDS011;53784;52.630;4.896;2023-09-19T14:26:37;16.45;;;3.20;;
66874;SDS011;53784;52.630;4.896;2023-09-19T14:29:02;14.80;;;3.25;;
66874;SDS011;53784;52.630;4.896;2023-09-19T14:31:28;18.20;;;3.50;;
66874;SDS011;53784;52.630;4.896;2023-09-19T14:33:54;20.33;;;4.07;;
66874;SDS011;53784;52.630;4.896;2023-09-19T14:36:20;22.23;;;4.10;;
66874;SDS011;53784;52.630;4.896;2023-09-19T14:38:46;17.58;;;3.50;;
66874;SDS011;53784;52.630;4.896;2023-09-19T14:41:12;22.67;;;4.13;;
66874;SDS011;53784;52.630;4.896;2023-09-19T14:43:37;24.60;;;4.07;;
66874;SDS011;53784;52.630;4.896;2023-09-19T14:46:03;19.17;;;3.35;;
66874;SDS011;53784;52.630;4.896;2023-09-19T14:48:29;21.00;;;3.72;;
66874;SDS011;53784;52.630;4.896;2023-09-19T14:50:54;19.27;;;3.83;;
66874;SDS011;53784;52.630;4.896;2023-09-19T14:53:20;17.15;;;3.28;;
66874;SDS011;53784;52.630;4.896;2023-09-19T14:55:46;22.42;;;3.47;;
66874;SDS011;53784;52.630;4.896;2023-09-19T14:58:12;20.15;;;3.78;;
66874;SDS011;53784;52.630;4.896;2023-09-19T15:00:38;19.02;;;3.58;;
66874;SDS011;53784;52.630;4.896;2023-09-19T15:03:04;23.08;;;3.90;;
66874;SDS011;53784;52.630;4.896;2023-09-19T15:05:29;15.70;;;3.22;;
66874;SDS011;53784;52.630;4.896;2023-09-19T15:07:55;23.42;;;4.25;;
66874;SDS011;53784;52.630;4.896;2023-09-19T15:10:21;20.73;;;4.10;;
66874;SDS011;53784;52.630;4.896;2023-09-19T15:12:48;20.23;;;3.70;;
66874;SDS011;53784;52.630;4.896;2023-09-19T15:15:13;23.33;;;4.30;;
66874;SDS011;53784;52.630;4.896;2023-09-19T15:17:39;24.55;;;4.47;;
66874;SDS011;53784;52.630;4.896;2023-09-19T15:20:04;26.30;;;3.90;;
66874;SDS011;53784;52.630;4.896;2023-09-19T15:22:31;34.90;;;5.40;;
66874;SDS011;53784;52.630;4.896;2023-09-19T15:24:58;22.58;;;4.32;;
66874;SDS011;53784;52.630;4.896;2023-09-19T15:27:23;23.73;;;3.92;;
66874;SDS011;53784;52.630;4.896;2023-09-19T15:29:48;25.00;;;3.85;;
66874;SDS011;53784;52.630;4.896;2023-09-19T15:32:14;21.25;;;3.67;;
66874;SDS011;53784;52.630;4.896;2023-09-19T15:34:39;21.35;;;3.92;;
66874;SDS011;53784;52.630;4.896;2023-09-19T15:37:04;23.40;;;3.95;;
66874;SDS011;53784;52.630;4.896;2023-09-19T15:39:30;27.65;;;4.65;;
66874;SDS011;53784;52.630;4.896;2023-09-19T15:41:59;30.23;;;5.05;;